Time;durP1;ratioP1;P1;durP2;ratioP2;P2;SDS_P1;SDS_P2;PMS_P1;PMS_P2;Temp;Humidity;BMP_temperature;BMP_pressure;BME280_temperature;BME280_humidity;BME280_pressure;Samples;Min_cycle;Max_cycle;Signal;HPM_P1;HPM_P2
2023/08/22 00:01:56;;;;;;;;;;;17.00;99.90;;;;;;5033942;28;20192;-81
2023/08/22 00:04:22;;;;;;;;;;;17.00;99.90;;;;;;5039084;28;19948;-81
2023/08/22 00:06:48;;;;;;;;;;;17.10;99.90;;;;;;5019074;28;19925;-81
2023/08/22 00:09:13;;;;;;;;;;;17.10;99.90;;;;;;5048287;28;21305;-81
2023/08/22 00:11:39;;;;;;;;;;;17.00;99.90;;;;;;5016237;28;20427;-81
2023/08/22 00:14:05;;;;;;;;;;;17.00;99.90;;;;;;5062479;28;19948;-81
2023/08/22 00:16:30;;;;;;;;;;;16.90;99.90;;;;;;5063803;28;19925;-81
2023/08/22 00:18:56;;;;;;;;;;;16.90;99.90;;;;;;5018913;28;19925;-81
2023/08/22 00:21:22;;;;;;;;;;;16.80;99.90;;;;;;5025459;28;19936;-81
2023/08/22 00:23:48;;;;;;;;;;;16.80;99.90;;;;;;5065422;28;19957;-81
2023/08/22 00:26:14;;;;;;;;;;;16.80;99.90;;;;;;5014880;28;20373;-81
2023/08/22 00:28:39;;;;;;;;;;;16.80;99.90;;;;;;5020013;28;19972;-81
2023/08/22 00:31:05;;;;;;;;;;;16.80;99.90;;;;;;5034770;28;19988;-81
2023/08/22 00:33:30;;;;;;;;;;;16.80;99.90;;;;;;5020860;28;19925;-81
2023/08/22 00:35:58;;;;;;;;;;;16.80;99.90;;;;;;5002608;28;19940;-81
2023/08/22 00:38:23;;;;;;;;;;;16.70;99.90;;;;;;5022557;28;19925;-81
2023/08/22 00:40:49;;;;;;;;;;;16.70;99.90;;;;;;5018625;28;19936;-80
2023/08/22 00:43:14;;;;;;;;;;;16.70;99.90;;;;;;5009346;28;19925;-80
2023/08/22 00:45:40;;;;;;;;;;;16.70;99.90;;;;;;5052286;28;19933;-80
2023/08/22 00:48:06;;;;;;;;;;;16.70;99.90;;;;;;5022782;28;19983;-81
2023/08/22 00:50:32;;;;;;;;;;;16.70;99.90;;;;;;5037661;28;19936;-81
2023/08/22 00:52:58;;;;;;;;;;;16.70;99.90;;;;;;5035136;28;19993;-81
2023/08/22 00:55:24;;;;;;;;;;;16.60;99.90;;;;;;5022153;28;19991;-81
2023/08/22 00:57:49;;;;;;;;;;;16.60;99.90;;;;;;5023585;28;19952;-80
2023/08/22 01:00:15;;;;;;;;;;;16.60;99.90;;;;;;5053058;28;19925;-80
2023/08/22 01:02:41;;;;;;;;;;;16.60;99.90;;;;;;5039191;28;20047;-80
2023/08/22 01:05:07;;;;;;;;;;;16.60;99.90;;;;;;5002635;28;19930;-80
2023/08/22 01:07:53;;;;;;;;;;;16.50;99.90;;;;;;5040330;28;19939;-80
2023/08/22 01:10:27;;;;;;;;;;;16.50;99.90;;;;;;5035970;28;19932;-80
2023/08/22 01:12:57;;;;;;;;;;;16.50;99.90;;;;;;5066396;28;20091;-80
2023/08/22 01:15:27;;;;;;;;;;;16.50;99.90;;;;;;5020072;28;19936;-80
2023/08/22 01:17:54;;;;;;;;;;;16.40;99.90;;;;;;5038295;28;20070;-80
2023/08/22 01:20:20;;;;;;;;;;;16.40;99.90;;;;;;5037934;28;19933;-80
2023/08/22 01:22:46;;;;;;;;;;;16.50;99.90;;;;;;5035894;28;20150;-80
2023/08/22 01:25:11;;;;;;;;;;;16.40;99.90;;;;;;5019454;28;19933;-80
2023/08/22 01:27:46;;;;;;;;;;;16.40;99.90;;;;;;5021478;28;19941;-80
2023/08/22 01:30:22;;;;;;;;;;;16.40;99.90;;;;;;5020866;28;19929;-80
2023/08/22 01:32:49;;;;;;;;;;;16.40;99.90;;;;;;5027468;28;19925;-80
2023/08/22 01:35:16;;;;;;;;;;;16.40;99.90;;;;;;5021317;28;19976;-79
2023/08/22 01:37:42;;;;;;;;;;;16.40;99.90;;;;;;5041193;28;19926;-80
2023/08/22 01:40:10;;;;;;;;;;;16.40;99.90;;;;;;5039919;28;19929;-80
2023/08/22 01:42:35;;;;;;;;;;;16.40;99.90;;;;;;5051894;28;19955;-80
2023/08/22 01:45:01;;;;;;;;;;;16.40;99.90;;;;;;5050350;28;19988;-79
2023/08/22 01:47:26;;;;;;;;;;;16.50;99.90;;;;;;5004570;28;19929;-79
2023/08/22 01:49:52;;;;;;;;;;;16.50;99.90;;;;;;5043240;28;19932;-79
2023/08/22 01:52:17;;;;;;;;;;;16.50;99.90;;;;;;5020204;28;19925;-79
2023/08/22 01:54:43;;;;;;;;;;;16.50;99.90;;;;;;5015990;28;19959;-80
2023/08/22 01:57:09;;;;;;;;;;;16.50;99.90;;;;;;5032930;28;19940;-80
2023/08/22 01:59:34;;;;;;;;;;;16.50;99.90;;;;;;5050929;28;19929;-80
2023/08/22 02:02:00;;;;;;;;;;;16.50;99.90;;;;;;5018353;28;19981;-80
2023/08/22 02:04:25;;;;;;;;;;;16.50;99.90;;;;;;5018922;28;20312;-80
2023/08/22 02:06:51;;;;;;;;;;;16.50;99.90;;;;;;5043303;28;19924;-80
2023/08/22 02:09:17;;;;;;;;;;;16.50;99.90;;;;;;5036049;28;20016;-80
2023/08/22 02:11:42;;;;;;;;;;;16.50;99.90;;;;;;5035428;28;19929;-80
2023/08/22 02:14:08;;;;;;;;;;;16.50;99.90;;;;;;5020703;28;21384;-80
2023/08/22 02:16:34;;;;;;;;;;;16.40;99.90;;;;;;5066076;28;19936;-80
2023/08/22 02:18:59;;;;;;;;;;;16.50;99.90;;;;;;5019792;28;19925;-80
2023/08/22 02:21:25;;;;;;;;;;;16.40;99.90;;;;;;5036570;28;19959;-80
2023/08/22 02:23:51;;;;;;;;;;;16.40;99.90;;;;;;5022762;28;19932;-80
2023/08/22 02:26:16;;;;;;;;;;;16.40;99.90;;;;;;5001895;28;19929;-80
2023/08/22 02:28:42;;;;;;;;;;;16.40;99.90;;;;;;5064159;28;19929;-80
2023/08/22 02:31:07;;;;;;;;;;;16.40;99.90;;;;;;5020351;28;19932;-80
2023/08/22 02:33:33;;;;;;;;;;;16.40;99.90;;;;;;5042654;28;19925;-80
2023/08/22 02:35:58;;;;;;;;;;;16.40;99.90;;;;;;5034855;28;19937;-80
2023/08/22 02:38:24;;;;;;;;;;;16.40;99.90;;;;;;5054349;28;20017;-81
2023/08/22 02:40:50;;;;;;;;;;;16.40;99.90;;;;;;5033523;28;19929;-80
2023/08/22 02:43:16;;;;;;;;;;;16.40;99.90;;;;;;5033855;28;19932;-80
2023/08/22 02:45:43;;;;;;;;;;;16.40;99.90;;;;;;5029944;28;19933;-80
2023/08/22 02:48:09;;;;;;;;;;;16.40;99.90;;;;;;5048257;28;19945;-80
2023/08/22 02:50:36;;;;;;;;;;;16.40;99.90;;;;;;5038754;28;19925;-80
2023/08/22 02:53:02;;;;;;;;;;;16.30;99.90;;;;;;5063745;28;19925;-80
2023/08/22 02:55:28;;;;;;;;;;;16.30;99.90;;;;;;5005828;28;19929;-81
2023/08/22 02:57:53;;;;;;;;;;;16.30;99.90;;;;;;5034636;28;19936;-80
2023/08/22 03:00:19;;;;;;;;;;;16.30;99.90;;;;;;5037553;28;20300;-80
2023/08/22 03:02:45;;;;;;;;;;;16.30;99.90;;;;;;5021796;28;19925;-80
2023/08/22 03:05:14;;;;;;;;;;;16.30;99.90;;;;;;5033931;28;19936;-80
2023/08/22 03:07:39;;;;;;;;;;;16.30;99.90;;;;;;5046505;28;19925;-80
2023/08/22 03:10:06;;;;;;;;;;;16.20;99.90;;;;;;5047906;28;19925;-80
2023/08/22 03:12:31;;;;;;;;;;;16.20;99.90;;;;;;5020015;28;20050;-80
2023/08/22 03:14:57;;;;;;;;;;;16.20;99.90;;;;;;5027705;28;19933;-80
2023/08/22 03:17:23;;;;;;;;;;;16.20;99.90;;;;;;5035478;28;19926;-80
2023/08/22 03:19:48;;;;;;;;;;;16.10;99.90;;;;;;5060303;28;19926;-80
2023/08/22 03:22:14;;;;;;;;;;;16.10;99.90;;;;;;5030404;28;19992;-80
2023/08/22 03:24:39;;;;;;;;;;;16.10;99.90;;;;;;5035554;28;19929;-80
2023/08/22 03:27:05;;;;;;;;;;;16.10;99.90;;;;;;5066073;28;19940;-80
2023/08/22 03:29:30;;;;;;;;;;;16.10;99.90;;;;;;5002022;28;19945;-80
2023/08/22 03:31:57;;;;;;;;;;;16.20;99.90;;;;;;5019461;28;19929;-80
2023/08/22 03:34:23;;;;;;;;;;;16.10;99.90;;;;;;5039895;28;19991;-80
2023/08/22 03:36:48;;;;;;;;;;;16.20;99.90;;;;;;5009968;28;19929;-80
2023/08/22 03:39:14;;;;;;;;;;;16.10;99.90;;;;;;5002026;28;19930;-80
2023/08/22 03:41:40;;;;;;;;;;;16.10;99.90;;;;;;5045056;28;19936;-80
2023/08/22 03:44:05;;;;;;;;;;;16.10;99.90;;;;;;5039418;28;19929;-80
2023/08/22 03:46:31;;;;;;;;;;;16.10;99.90;;;;;;5018275;28;19929;-80
2023/08/22 03:48:56;;;;;;;;;;;16.20;99.90;;;;;;5037129;28;19991;-80
2023/08/22 03:51:22;;;;;;;;;;;16.20;99.90;;;;;;5033549;28;19940;-80
2023/08/22 03:53:48;;;;;;;;;;;16.20;99.90;;;;;;5018135;28;20608;-80
2023/08/22 03:56:13;;;;;;;;;;;16.20;99.90;;;;;;5038858;28;20015;-79
2023/08/22 03:58:39;;;;;;;;;;;16.10;99.90;;;;;;5019705;28;20487;-79
2023/08/22 04:01:05;;;;;;;;;;;16.10;99.90;;;;;;5032107;28;19937;-79
2023/08/22 04:03:31;;;;;;;;;;;16.00;99.90;;;;;;5021760;28;19931;-79
2023/08/22 04:05:58;;;;;;;;;;;16.00;99.90;;;;;;5036804;28;19976;-79
2023/08/22 04:08:24;;;;;;;;;;;15.90;99.90;;;;;;5046977;28;19929;-79
2023/08/22 04:10:50;;;;;;;;;;;15.90;99.90;;;;;;5048609;28;19929;-79
2023/08/22 04:13:16;;;;;;;;;;;15.90;99.90;;;;;;5032509;28;20554;-79
2023/08/22 04:15:41;;;;;;;;;;;15.80;99.90;;;;;;5036385;28;19932;-79
2023/08/22 04:18:07;;;;;;;;;;;15.80;99.90;;;;;;5047451;28;19929;-79
2023/08/22 04:20:32;;;;;;;;;;;15.70;99.90;;;;;;5023950;28;19926;-79
2023/08/22 04:22:58;;;;;;;;;;;15.70;99.90;;;;;;4998435;28;19995;-79
2023/08/22 04:25:23;;;;;;;;;;;15.70;99.90;;;;;;5034938;28;19989;-79
2023/08/22 04:27:49;;;;;;;;;;;15.60;99.90;;;;;;5066282;28;20291;-79
2023/08/22 04:30:15;;;;;;;;;;;15.60;99.90;;;;;;5020151;28;19929;-79
2023/08/22 04:32:40;;;;;;;;;;;15.50;99.90;;;;;;5022224;28;19975;-79
2023/08/22 04:35:06;;;;;;;;;;;15.50;99.90;;;;;;5036229;28;19925;-79
2023/08/22 04:37:32;;;;;;;;;;;15.50;99.90;;;;;;5040439;28;19956;-79
2023/08/22 04:39:57;;;;;;;;;;;15.50;99.90;;;;;;5003554;28;20442;-79
2023/08/22 04:42:23;;;;;;;;;;;15.50;99.90;;;;;;5016235;28;20404;-79
2023/08/22 04:44:49;;;;;;;;;;;15.50;99.90;;;;;;5036589;28;19929;-78
2023/08/22 04:47:14;;;;;;;;;;;15.40;99.90;;;;;;5016564;28;19926;-79
2023/08/22 04:49:40;;;;;;;;;;;15.40;99.90;;;;;;5037762;28;20011;-79
2023/08/22 04:52:05;;;;;;;;;;;15.40;99.90;;;;;;5018705;28;20303;-79
2023/08/22 04:54:31;;;;;;;;;;;15.40;99.90;;;;;;5032509;28;20012;-79
2023/08/22 04:56:57;;;;;;;;;;;15.40;99.90;;;;;;5015506;28;19957;-79
2023/08/22 04:59:22;;;;;;;;;;;15.30;99.90;;;;;;5013848;28;19936;-79
2023/08/22 05:01:48;;;;;;;;;;;15.30;99.90;;;;;;5018987;28;20012;-79
2023/08/22 05:04:14;;;;;;;;;;;15.40;99.90;;;;;;5017538;28;20008;-79
2023/08/22 05:06:40;;;;;;;;;;;15.40;99.90;;;;;;5031103;28;19995;-79
2023/08/22 05:09:05;;;;;;;;;;;15.40;99.90;;;;;;5048116;28;20415;-79
2023/08/22 05:11:31;;;;;;;;;;;15.50;99.90;;;;;;5045115;28;19925;-79
2023/08/22 05:13:56;;;;;;;;;;;15.50;99.90;;;;;;5031456;28;20019;-79
2023/08/22 05:16:22;;;;;;;;;;;15.50;99.90;;;;;;5047652;28;19955;-79
2023/08/22 05:18:47;;;;;;;;;;;15.60;99.90;;;;;;5034293;28;19931;-80
2023/08/22 05:21:13;;;;;;;;;;;15.60;99.90;;;;;;5040138;28;20043;-79
2023/08/22 05:23:38;;;;;;;;;;;15.70;99.90;;;;;;5025055;28;19925;-79
2023/08/22 05:26:04;;;;;;;;;;;15.70;99.90;;;;;;5040609;28;19925;-79
2023/08/22 05:28:30;;;;;;;;;;;15.80;99.90;;;;;;5022450;28;19940;-79
2023/08/22 05:30:55;;;;;;;;;;;15.90;99.90;;;;;;5023210;28;19926;-80
2023/08/22 05:33:21;;;;;;;;;;;16.10;99.90;;;;;;5049920;28;20730;-79
2023/08/22 05:35:46;;;;;;;;;;;16.20;99.90;;;;;;5015719;28;19987;-80
2023/08/22 05:38:12;;;;;;;;;;;16.30;99.90;;;;;;5019931;28;19933;-80
2023/08/22 05:40:38;;;;;;;;;;;16.40;99.90;;;;;;5050689;28;20509;-79
2023/08/22 05:43:03;;;;;;;;;;;16.40;99.90;;;;;;5040413;28;19926;-79
2023/08/22 05:45:29;;;;;;;;;;;16.50;99.90;;;;;;5007118;28;19925;-79
2023/08/22 05:47:55;;;;;;;;;;;16.60;99.90;;;;;;5024964;28;19925;-80
2023/08/22 05:50:20;;;;;;;;;;;16.70;99.90;;;;;;5023281;28;19925;-79
2023/08/22 05:52:46;;;;;;;;;;;16.80;99.90;;;;;;5004248;28;19956;-80
2023/08/22 05:55:11;;;;;;;;;;;16.90;99.90;;;;;;5021226;28;20392;-80
2023/08/22 05:57:37;;;;;;;;;;;16.80;99.90;;;;;;5032900;28;19955;-79
2023/08/22 06:00:03;;;;;;;;;;;16.90;99.90;;;;;;5053128;28;20138;-80
2023/08/22 06:02:29;;;;;;;;;;;17.00;99.90;;;;;;5039985;28;19933;-80
2023/08/22 06:04:55;;;;;;;;;;;17.10;99.90;;;;;;5049329;28;19960;-80
2023/08/22 06:07:20;;;;;;;;;;;17.30;99.90;;;;;;5020720;28;19925;-80
2023/08/22 06:09:46;;;;;;;;;;;17.50;99.90;;;;;;5018022;28;19933;-80
2023/08/22 06:12:12;;;;;;;;;;;17.60;99.90;;;;;;5052251;28;19976;-80
2023/08/22 06:14:38;;;;;;;;;;;17.70;99.90;;;;;;5008225;28;19930;-80
2023/08/22 06:17:03;;;;;;;;;;;17.90;99.90;;;;;;5019143;28;20400;-80
2023/08/22 06:19:29;;;;;;;;;;;18.10;99.90;;;;;;5038898;28;20513;-79
2023/08/22 06:21:54;;;;;;;;;;;18.20;99.90;;;;;;5002569;28;20192;-80
2023/08/22 06:24:20;;;;;;;;;;;18.40;99.90;;;;;;5037028;28;19929;-80
2023/08/22 06:26:47;;;;;;;;;;;18.50;99.90;;;;;;5034409;28;20276;-80
2023/08/22 06:29:12;;;;;;;;;;;18.60;99.90;;;;;;5053240;28;19967;-80
2023/08/22 06:31:38;;;;;;;;;;;18.70;99.90;;;;;;4998543;28;19925;-80
2023/08/22 06:34:04;;;;;;;;;;;18.80;99.90;;;;;;5018366;28;19925;-80
2023/08/22 06:36:29;;;;;;;;;;;18.90;99.90;;;;;;5034878;28;19931;-79
2023/08/22 06:38:55;;;;;;;;;;;19.00;99.90;;;;;;5002845;28;19933;-80
2023/08/22 06:41:20;;;;;;;;;;;19.20;99.90;;;;;;5033102;28;19932;-80
2023/08/22 06:43:47;;;;;;;;;;;19.30;99.90;;;;;;5001219;28;19926;-79
2023/08/22 06:46:13;;;;;;;;;;;19.40;99.90;;;;;;5063666;28;19933;-82
2023/08/22 06:48:38;;;;;;;;;;;19.80;99.90;;;;;;5032049;28;19940;-80
2023/08/22 06:51:04;;;;;;;;;;;20.30;99.90;;;;;;5000161;28;19925;-80
2023/08/22 06:53:29;;;;;;;;;;;20.60;99.90;;;;;;5004882;28;19994;-80
2023/08/22 06:55:55;;;;;;;;;;;20.70;99.90;;;;;;5005582;28;19932;-80
2023/08/22 06:58:21;;;;;;;;;;;20.70;99.90;;;;;;5019314;28;19929;-79
2023/08/22 07:00:47;;;;;;;;;;;20.60;99.90;;;;;;5037079;28;19929;-79
2023/08/22 07:03:13;;;;;;;;;;;20.50;99.90;;;;;;5018913;28;19929;-79
2023/08/22 07:05:39;;;;;;;;;;;20.40;99.90;;;;;;5004839;28;20474;-79
2023/08/22 07:08:05;;;;;;;;;;;20.30;99.90;;;;;;5052566;28;19925;-79
2023/08/22 07:10:30;;;;;;;;;;;20.30;99.90;;;;;;5038023;28;19929;-79
2023/08/22 07:12:56;;;;;;;;;;;20.30;99.90;;;;;;5003168;28;19925;-78
2023/08/22 07:15:22;;;;;;;;;;;20.40;99.90;;;;;;5018785;28;19929;-78
2023/08/22 07:17:47;;;;;;;;;;;20.60;99.90;;;;;;5015910;28;20364;-79
2023/08/22 07:20:13;;;;;;;;;;;20.90;99.90;;;;;;5022653;28;19925;-79
2023/08/22 07:22:39;;;;;;;;;;;21.50;99.90;;;;;;5034437;28;19925;-78
2023/08/22 07:25:05;;;;;;;;;;;22.30;99.90;;;;;;5006454;28;19979;-78
2023/08/22 07:27:30;;;;;;;;;;;23.00;99.90;;;;;;5022496;28;19925;-78
2023/08/22 07:29:56;;;;;;;;;;;23.60;99.90;;;;;;5045698;28;19964;-79
2023/08/22 07:32:22;;;;;;;;;;;24.20;99.90;;;;;;5022639;28;19935;-78
2023/08/22 07:34:48;;;;;;;;;;;24.70;99.90;;;;;;5021890;28;19928;-78
2023/08/22 07:37:14;;;;;;;;;;;25.20;99.90;;;;;;5042843;28;20055;-79
2023/08/22 07:39:40;;;;;;;;;;;25.60;99.90;;;;;;5039342;28;19932;-79
2023/08/22 07:42:05;;;;;;;;;;;25.70;99.90;;;;;;5068928;28;19929;-79
2023/08/22 07:44:31;;;;;;;;;;;26.00;99.90;;;;;;5044994;28;19943;-79
2023/08/22 07:46:56;;;;;;;;;;;26.10;99.90;;;;;;5034627;28;19929;-78
2023/08/22 07:49:23;;;;;;;;;;;26.20;99.90;;;;;;5018311;28;19937;-77
2023/08/22 07:51:49;;;;;;;;;;;26.20;99.90;;;;;;5046126;28;19929;-77
2023/08/22 07:54:14;;;;;;;;;;;26.40;99.90;;;;;;5022053;28;19925;-77
2023/08/22 07:56:40;;;;;;;;;;;26.70;99.90;;;;;;5017768;28;20004;-77
2023/08/22 07:59:06;;;;;;;;;;;26.80;99.90;;;;;;5064416;28;19936;-79
2023/08/22 08:01:32;;;;;;;;;;;26.90;99.90;;;;;;5032712;28;20140;-84
2023/08/22 08:03:58;;;;;;;;;;;26.80;99.90;;;;;;5026096;28;19929;-84
2023/08/22 08:06:24;;;;;;;;;;;26.90;99.90;;;;;;5033480;28;19932;-84
2023/08/22 08:08:49;;;;;;;;;;;26.80;99.90;;;;;;5051547;28;20307;-84
2023/08/22 08:11:15;;;;;;;;;;;26.50;99.90;;;;;;5034552;28;20406;-84
2023/08/22 08:13:41;;;;;;;;;;;26.40;99.90;;;;;;5033925;28;19975;-84
2023/08/22 08:16:06;;;;;;;;;;;26.10;99.90;;;;;;5035994;28;19925;-83
2023/08/22 08:18:34;;;;;;;;;;;25.80;99.90;;;;;;5052578;28;20439;-83
2023/08/22 08:21:00;;;;;;;;;;;25.50;99.90;;;;;;5037077;28;19932;-83
2023/08/22 08:23:26;;;;;;;;;;;25.30;99.90;;;;;;5053977;28;20024;-83
2023/08/22 08:25:51;;;;;;;;;;;25.00;99.90;;;;;;5019732;28;20380;-84
2023/08/22 08:28:17;;;;;;;;;;;24.90;99.90;;;;;;5038157;28;19952;-83
2023/08/22 08:30:43;;;;;;;;;;;24.70;99.90;;;;;;5023692;28;19929;-84
2023/08/22 08:33:09;;;;;;;;;;;24.60;99.90;;;;;;5038206;28;19976;-84
2023/08/22 08:35:34;;;;;;;;;;;24.50;99.90;;;;;;5032197;28;19940;-84
2023/08/22 08:38:00;;;;;;;;;;;24.50;99.90;;;;;;5036505;28;19965;-84
2023/08/22 08:40:29;;;;;;;;;;;24.50;99.90;;;;;;5060034;28;19975;-83
2023/08/22 08:42:55;;;;;;;;;;;24.50;99.90;;;;;;5019227;28;20016;-84
2023/08/22 08:45:21;;;;;;;;;;;24.40;99.90;;;;;;5004090;28;19982;-84
2023/08/22 08:47:47;;;;;;;;;;;24.50;99.90;;;;;;5025408;28;19925;-83
2023/08/22 08:50:13;;;;;;;;;;;24.60;99.90;;;;;;5053997;28;19933;-84
2023/08/22 08:52:38;;;;;;;;;;;24.70;99.90;;;;;;5018550;28;20000;-84
2023/08/22 08:55:04;;;;;;;;;;;24.80;99.90;;;;;;5015865;28;19925;-83
2023/08/22 08:57:31;;;;;;;;;;;24.90;99.90;;;;;;5014822;28;20288;-84
2023/08/22 08:59:59;;;;;;;;;;;25.10;99.90;;;;;;5021283;28;19936;-84
2023/08/22 09:02:25;;;;;;;;;;;25.20;99.90;;;;;;5038866;28;19964;-83
2023/08/22 09:04:50;;;;;;;;;;;25.20;99.90;;;;;;5023022;28;19987;-83
2023/08/22 09:07:18;;;;;;;;;;;25.00;99.90;;;;;;5022314;28;20373;-83
2023/08/22 09:09:43;;;;;;;;;;;24.90;99.90;;;;;;5056822;28;19932;-85
2023/08/22 09:12:10;;;;;;;;;;;25.20;99.90;;;;;;5057459;28;19925;-84
2023/08/22 09:14:40;;;;;;;;;;;25.50;99.90;;;;;;5044616;28;19952;-84
2023/08/22 09:17:06;;;;;;;;;;;25.70;99.90;;;;;;5038110;28;19932;-84
2023/08/22 09:19:34;;;;;;;;;;;25.70;99.90;;;;;;5024555;28;19926;-84
2023/08/22 09:22:02;;;;;;;;;;;25.40;99.90;;;;;;5057930;28;19933;-83
2023/08/22 09:24:28;;;;;;;;;;;25.20;99.90;;;;;;5025619;28;21065;-84
2023/08/22 09:26:54;;;;;;;;;;;25.00;99.90;;;;;;5056561;28;19925;-85
2023/08/22 09:29:30;;;;;;;;;;;25.00;99.90;;;;;;5024543;28;20374;-85
2023/08/22 09:32:01;;;;;;;;;;;25.20;99.90;;;;;;5041234;28;19932;-83
2023/08/22 09:34:27;;;;;;;;;;;25.40;99.90;;;;;;5041419;28;19933;-84
2023/08/22 09:36:54;;;;;;;;;;;25.70;99.90;;;;;;5022014;28;19928;-84
2023/08/22 09:39:19;;;;;;;;;;;26.10;99.90;;;;;;5024191;28;19925;-84
2023/08/22 09:41:45;;;;;;;;;;;26.50;99.90;;;;;;5023455;28;19925;-84
2023/08/22 09:44:11;;;;;;;;;;;26.80;99.90;;;;;;5022793;28;19925;-84
2023/08/22 09:46:41;;;;;;;;;;;27.10;99.90;;;;;;5022238;28;19925;-82
2023/08/22 09:49:09;;;;;;;;;;;27.40;99.90;;;;;;5048934;28;19929;-84
2023/08/22 09:51:35;;;;;;;;;;;27.70;99.90;;;;;;5040376;28;20423;-82
2023/08/22 09:54:03;;;;;;;;;;;27.90;99.90;;;;;;5024265;28;19925;-84
2023/08/22 09:56:31;;;;;;;;;;;28.00;99.90;;;;;;5034694;28;19932;-83
2023/08/22 09:58:57;;;;;;;;;;;27.60;99.90;;;;;;5049920;28;19968;-82
2023/08/22 10:01:24;;;;;;;;;;;27.00;99.90;;;;;;5040813;28;19936;-82
2023/08/22 10:03:53;;;;;;;;;;;26.60;99.90;;;;;;5048498;28;19981;-84
2023/08/22 10:06:19;;;;;;;;;;;26.50;99.90;;;;;;5061330;28;19925;-83
2023/08/22 10:08:45;;;;;;;;;;;26.60;99.90;;;;;;5037121;28;19957;-82
2023/08/22 10:11:12;;;;;;;;;;;26.80;99.90;;;;;;5072129;28;19924;-82
2023/08/22 10:13:38;;;;;;;;;;;27.20;99.90;;;;;;5034763;28;20035;-81
2023/08/22 10:16:04;;;;;;;;;;;27.40;99.90;;;;;;5055990;28;20409;-82
2023/08/22 10:18:30;;;;;;;;;;;27.50;99.90;;;;;;5020526;28;19968;-84
2023/08/22 10:20:56;;;;;;;;;;;27.50;99.90;;;;;;5014409;28;19929;-84
2023/08/22 10:23:44;;;;;;;;;;;27.10;99.90;;;;;;5023562;28;20053;-84
2023/08/22 10:26:10;;;;;;;;;;;26.70;99.90;;;;;;5021877;28;19948;-84
2023/08/22 10:28:42;;;;;;;;;;;26.20;99.90;;;;;;5038039;28;20384;-83
2023/08/22 10:31:07;;;;;;;;;;;25.90;99.90;;;;;;5006203;28;19949;-82
2023/08/22 10:33:33;;;;;;;;;;;25.80;99.90;;;;;;5019954;28;19976;-83
2023/08/22 10:36:02;;;;;;;;;;;25.70;99.90;;;;;;5056292;28;20312;-83
2023/08/22 10:38:28;;;;;;;;;;;25.80;99.90;;;;;;5039191;28;19933;-83
2023/08/22 10:40:54;;;;;;;;;;;25.80;99.90;;;;;;5017494;28;20419;-81
2023/08/22 10:43:35;;;;;;;;;;;25.90;99.90;;;;;;5021373;28;19977;-83
2023/08/22 10:46:00;;;;;;;;;;;25.90;99.90;;;;;;5026811;28;19925;-82
2023/08/22 10:48:26;;;;;;;;;;;25.90;99.90;;;;;;5038497;28;19963;-82
2023/08/22 10:50:51;;;;;;;;;;;25.90;99.90;;;;;;5018843;28;19925;-82
2023/08/22 10:53:18;;;;;;;;;;;25.80;99.90;;;;;;5005590;28;19929;-82
2023/08/22 10:55:43;;;;;;;;;;;25.70;99.90;;;;;;5040681;28;19994;-84
2023/08/22 10:58:29;;;;;;;;;;;25.60;99.90;;;;;;5071640;28;20403;-83
2023/08/22 11:00:55;;;;;;;;;;;25.70;99.90;;;;;;5030866;28;19925;-84
2023/08/22 11:03:20;;;;;;;;;;;25.60;99.90;;;;;;5043897;28;19925;-84
2023/08/22 11:05:47;;;;;;;;;;;25.60;99.90;;;;;;5022612;28;19948;-84
2023/08/22 11:08:12;;;;;;;;;;;25.70;99.90;;;;;;5041365;28;19932;-82
2023/08/22 11:10:39;;;;;;;;;;;25.90;99.90;;;;;;5040132;28;19925;-83
2023/08/22 11:13:07;;;;;;;;;;;26.10;99.90;;;;;;5019522;28;19925;-83
2023/08/22 11:15:33;;;;;;;;;;;26.30;99.90;;;;;;5027448;28;19925;-83
2023/08/22 11:17:59;;;;;;;;;;;26.40;99.90;;;;;;5037917;28;19936;-84
2023/08/22 11:20:25;;;;;;;;;;;26.50;99.90;;;;;;5022827;28;19984;-83
2023/08/22 11:22:53;;;;;;;;;;;26.60;99.90;;;;;;5034522;28;20406;-83
2023/08/22 11:25:22;;;;;;;;;;;26.80;99.90;;;;;;5038108;28;19936;-83
2023/08/22 11:27:48;;;;;;;;;;;27.00;99.90;;;;;;5038188;28;19925;-83
2023/08/22 11:30:16;;;;;;;;;;;27.10;99.90;;;;;;5039822;28;19932;-81
2023/08/22 11:32:42;;;;;;;;;;;27.10;99.90;;;;;;5046300;28;20277;-86
2023/08/22 11:35:08;;;;;;;;;;;27.00;99.90;;;;;;5049209;28;19972;-84
2023/08/22 11:37:34;;;;;;;;;;;27.00;99.90;;;;;;5067909;28;19925;-84
2023/08/22 11:40:00;;;;;;;;;;;27.10;99.90;;;;;;5016340;28;20830;-84
2023/08/22 11:42:27;;;;;;;;;;;27.30;99.90;;;;;;5024731;28;19929;-86
2023/08/22 11:45:04;;;;;;;;;;;27.40;99.90;;;;;;5032817;28;19929;-83
2023/08/22 11:47:43;;;;;;;;;;;27.40;99.90;;;;;;5024403;28;19929;-84
2023/08/22 11:50:13;;;;;;;;;;;27.60;99.90;;;;;;5051299;28;19936;-83
2023/08/22 11:52:43;;;;;;;;;;;27.60;99.90;;;;;;5038009;28;19947;-84
2023/08/22 11:55:10;;;;;;;;;;;27.50;98.80;;;;;;5020180;28;19991;-85
2023/08/22 11:57:41;;;;;;;;;;;27.50;97.30;;;;;;5068258;28;19944;-85
2023/08/22 12:00:08;;;;;;;;;;;27.50;95.70;;;;;;5031068;28;19936;-84
2023/08/22 12:02:34;;;;;;;;;;;27.40;99.00;;;;;;5020343;28;19929;-83
2023/08/22 12:05:00;;;;;;;;;;;27.50;99.60;;;;;;5033756;28;19929;-83
2023/08/22 12:07:26;;;;;;;;;;;27.60;99.90;;;;;;5027973;28;19936;-84
2023/08/22 12:09:59;;;;;;;;;;;27.60;99.90;;;;;;5030763;28;19996;-84
2023/08/22 12:12:25;;;;;;;;;;;27.80;99.30;;;;;;5030937;28;19925;-87
2023/08/22 12:14:51;;;;;;;;;;;27.80;98.10;;;;;;5020028;28;19948;-85
2023/08/22 12:17:17;;;;;;;;;;;27.80;96.40;;;;;;5021712;28;19944;-82
2023/08/22 12:19:43;;;;;;;;;;;27.80;98.60;;;;;;5037880;28;19932;-85
2023/08/22 12:22:09;;;;;;;;;;;27.70;98.40;;;;;;5021382;28;19929;-83
2023/08/22 12:24:34;;;;;;;;;;;27.80;99.90;;;;;;5016843;28;19951;-81
2023/08/22 12:27:00;;;;;;;;;;;27.90;99.90;;;;;;5020144;28;20480;-82
2023/08/22 12:29:25;;;;;;;;;;;27.90;99.90;;;;;;5037451;28;19929;-82
2023/08/22 12:31:51;;;;;;;;;;;27.80;99.90;;;;;;5020598;28;19929;-82
2023/08/22 12:34:16;;;;;;;;;;;27.90;99.50;;;;;;5053555;28;19976;-83
2023/08/22 12:36:42;;;;;;;;;;;27.90;98.40;;;;;;5031008;28;19926;-80
2023/08/22 12:39:11;;;;;;;;;;;27.80;98.50;;;;;;5024295;28;19929;-83
2023/08/22 12:41:38;;;;;;;;;;;27.70;97.50;;;;;;5030767;28;19926;-83
2023/08/22 12:44:04;;;;;;;;;;;27.70;99.20;;;;;;5051414;28;19972;-80
2023/08/22 12:46:29;;;;;;;;;;;27.70;99.10;;;;;;5026262;28;19933;-82
2023/08/22 12:48:55;;;;;;;;;;;27.70;98.10;;;;;;5025293;28;20292;-82
2023/08/22 12:51:22;;;;;;;;;;;27.70;97.60;;;;;;5040874;28;19982;-82
2023/08/22 12:53:47;;;;;;;;;;;27.70;98.80;;;;;;5042091;28;19932;-84
2023/08/22 12:56:13;;;;;;;;;;;27.70;98.60;;;;;;5045972;28;19925;-83
2023/08/22 12:58:39;;;;;;;;;;;27.70;99.80;;;;;;5022828;28;20012;-80
2023/08/22 13:01:04;;;;;;;;;;;27.60;97.80;;;;;;5041380;28;19994;-86
2023/08/22 13:03:30;;;;;;;;;;;27.60;99.00;;;;;;5033390;28;19924;-86
2023/08/22 13:05:56;;;;;;;;;;;27.70;97.50;;;;;;5049308;28;19925;-85
2023/08/22 13:08:22;;;;;;;;;;;27.70;99.90;;;;;;5046261;28;19932;-85
2023/08/22 13:10:48;;;;;;;;;;;27.70;98.60;;;;;;5056865;28;19933;-86
2023/08/22 13:13:13;;;;;;;;;;;27.70;98.90;;;;;;5026790;28;19976;-86
2023/08/22 13:15:39;;;;;;;;;;;27.60;98.70;;;;;;5043427;28;20401;-85
2023/08/22 13:18:05;;;;;;;;;;;27.60;99.90;;;;;;5043032;28;19988;-84
2023/08/22 13:20:30;;;;;;;;;;;27.70;99.30;;;;;;5058073;28;19925;-87
2023/08/22 13:22:56;;;;;;;;;;;27.60;97.10;;;;;;5043125;28;19925;-85
2023/08/22 13:25:21;;;;;;;;;;;27.40;97.90;;;;;;5058598;28;19952;-85
2023/08/22 13:27:47;;;;;;;;;;;27.40;98.20;;;;;;5041649;28;19967;-85
2023/08/22 13:30:13;;;;;;;;;;;27.40;98.50;;;;;;5037930;28;19929;-85
2023/08/22 13:32:38;;;;;;;;;;;27.40;97.90;;;;;;5072982;28;19937;-84
2023/08/22 13:35:04;;;;;;;;;;;27.40;99.30;;;;;;5021169;28;19933;-86
2023/08/22 13:37:32;;;;;;;;;;;27.30;98.10;;;;;;5055998;28;19926;-86
2023/08/22 13:39:59;;;;;;;;;;;27.20;96.60;;;;;;5051948;28;19929;-86
2023/08/22 13:42:25;;;;;;;;;;;27.10;98.70;;;;;;5063829;28;19951;-86
2023/08/22 13:44:50;;;;;;;;;;;27.20;99.20;;;;;;5039561;28;19925;-86
2023/08/22 13:47:16;;;;;;;;;;;27.20;98.40;;;;;;5074122;28;19971;-86
2023/08/22 13:49:42;;;;;;;;;;;27.20;95.90;;;;;;5041433;28;20435;-87
2023/08/22 13:52:07;;;;;;;;;;;27.20;98.00;;;;;;5033551;28;19929;-86
2023/08/22 13:54:33;;;;;;;;;;;27.20;97.80;;;;;;5040751;28;20007;-87
2023/08/22 13:56:58;;;;;;;;;;;27.00;99.20;;;;;;5024202;28;20013;-87
2023/08/22 13:59:24;;;;;;;;;;;26.90;99.90;;;;;;5058663;28;19951;-86
2023/08/22 14:01:50;;;;;;;;;;;26.60;99.90;;;;;;5023361;28;19925;-85
2023/08/22 14:04:17;;;;;;;;;;;26.40;99.90;;;;;;5009220;28;19951;-87
2023/08/22 14:06:42;;;;;;;;;;;26.20;99.90;;;;;;5028243;28;19965;-86
2023/08/22 14:09:08;;;;;;;;;;;26.00;99.90;;;;;;5039967;28;20003;-87
2023/08/22 14:11:34;;;;;;;;;;;25.90;99.90;;;;;;5036920;28;19929;-84